sensor_id;sensor_type;location;lat;lon;timestamp;P1;durP1;ratioP1;P2;durP2;ratioP2
84816;SDS011;75051;53.104;18.058;2023-12-29T00:00:08;9.60;;;5.40;;
84816;SDS011;75051;53.104;18.058;2023-12-29T00:02:35;8.10;;;4.60;;
84816;SDS011;75051;53.104;18.058;2023-12-29T00:05:00;8.00;;;4.90;;
84816;SDS011;75051;53.104;18.058;2023-12-29T00:07:26;6.70;;;4.30;;
84816;SDS011;75051;53.104;18.058;2023-12-29T00:09:52;7.30;;;4.30;;
84816;SDS011;75051;53.104;18.058;2023-12-29T00:12:18;7.80;;;5.20;;
84816;SDS011;75051;53.104;18.058;2023-12-29T00:14:44;7.90;;;4.60;;
84816;SDS011;75051;53.104;18.058;2023-12-29T00:17:10;7.00;;;5.20;;
84816;SDS011;75051;53.104;18.058;2023-12-29T00:19:37;7.90;;;4.50;;
84816;SDS011;75051;53.104;18.058;2023-12-29T00:22:03;6.60;;;4.90;;
84816;SDS011;75051;53.104;18.058;2023-12-29T00:24:30;10.90;;;5.80;;
84816;SDS011;75051;53.104;18.058;2023-12-29T00:26:57;9.90;;;5.70;;
84816;SDS011;75051;53.104;18.058;2023-12-29T00:29:24;8.50;;;4.90;;
84816;SDS011;75051;53.104;18.058;2023-12-29T00:31:50;7.20;;;5.30;;
84816;SDS011;75051;53.104;18.058;2023-12-29T00:34:16;8.40;;;4.70;;
84816;SDS011;75051;53.104;18.058;2023-12-29T00:36:42;7.50;;;4.50;;
84816;SDS011;75051;53.104;18.058;2023-12-29T00:39:08;9.10;;;5.20;;
84816;SDS011;75051;53.104;18.058;2023-12-29T00:41:34;6.90;;;5.20;;
84816;SDS011;75051;53.104;18.058;2023-12-29T00:44:00;8.00;;;4.70;;
84816;SDS011;75051;53.104;18.058;2023-12-29T00:46:26;8.60;;;4.80;;
84816;SDS011;75051;53.104;18.058;2023-12-29T00:48:52;8.20;;;5.20;;
84816;SDS011;75051;53.104;18.058;2023-12-29T00:51:18;7.40;;;5.50;;
84816;SDS011;75051;53.104;18.058;2023-12-29T00:53:45;6.60;;;5.00;;
84816;SDS011;75051;53.104;18.058;2023-12-29T00:56:11;6.70;;;4.20;;
84816;SDS011;75051;53.104;18.058;2023-12-29T00:58:38;11.00;;;4.60;;
84816;SDS011;75051;53.104;18.058;2023-12-29T01:01:07;6.90;;;4.90;;
84816;SDS011;75051;53.104;18.058;2023-12-29T01:03:35;8.00;;;4.80;;
84816;SDS011;75051;53.104;18.058;2023-12-29T01:06:01;7.30;;;4.10;;
84816;SDS011;75051;53.104;18.058;2023-12-29T01:08:27;7.80;;;6.00;;
84816;SDS011;75051;53.104;18.058;2023-12-29T01:10:53;7.00;;;5.30;;
84816;SDS011;75051;53.104;18.058;2023-12-29T01:13:19;6.20;;;4.40;;
84816;SDS011;75051;53.104;18.058;2023-12-29T01:15:45;9.60;;;5.00;;
84816;SDS011;75051;53.104;18.058;2023-12-29T01:18:12;10.40;;;5.20;;
84816;SDS011;75051;53.104;18.058;2023-12-29T01:20:39;7.80;;;4.80;;
84816;SDS011;75051;53.104;18.058;2023-12-29T01:23:06;8.50;;;5.10;;
84816;SDS011;75051;53.104;18.058;2023-12-29T01:25:33;7.30;;;4.50;;
84816;SDS011;75051;53.104;18.058;2023-12-29T01:27:58;6.50;;;4.00;;
84816;SDS011;75051;53.104;18.058;2023-12-29T01:30:24;6.90;;;4.30;;
84816;SDS011;75051;53.104;18.058;2023-12-29T01:32:50;5.20;;;4.00;;
84816;SDS011;75051;53.104;18.058;2023-12-29T01:35:16;8.90;;;5.00;;
84816;SDS011;75051;53.104;18.058;2023-12-29T01:37:42;8.70;;;4.40;;
84816;SDS011;75051;53.104;18.058;2023-12-29T01:40:08;6.20;;;4.50;;
84816;SDS011;75051;53.104;18.058;2023-12-29T01:42:34;5.70;;;3.50;;
84816;SDS011;75051;53.104;18.058;2023-12-29T01:45:00;8.10;;;4.40;;
84816;SDS011;75051;53.104;18.058;2023-12-29T01:47:27;9.10;;;4.60;;
84816;SDS011;75051;53.104;18.058;2023-12-29T01:49:53;7.20;;;4.80;;
84816;SDS011;75051;53.104;18.058;2023-12-29T01:52:19;6.60;;;4.20;;
84816;SDS011;75051;53.104;18.058;2023-12-29T01:54:46;6.80;;;5.30;;
84816;SDS011;75051;53.104;18.058;2023-12-29T01:57:15;7.50;;;5.00;;
84816;SDS011;75051;53.104;18.058;2023-12-29T01:59:41;7.40;;;4.70;;
84816;SDS011;75051;53.104;18.058;2023-12-29T02:02:08;9.50;;;4.00;;
84816;SDS011;75051;53.104;18.058;2023-12-29T02:04:34;7.30;;;4.50;;
84816;SDS011;75051;53.104;18.058;2023-12-29T02:07:00;7.80;;;5.50;;
84816;SDS011;75051;53.104;18.058;2023-12-29T02:09:26;8.20;;;4.20;;
84816;SDS011;75051;53.104;18.058;2023-12-29T02:11:53;6.70;;;4.20;;
84816;SDS011;75051;53.104;18.058;2023-12-29T02:14:18;8.00;;;4.40;;
84816;SDS011;75051;53.104;18.058;2023-12-29T02:16:52;8.60;;;4.70;;
84816;SDS011;75051;53.104;18.058;2023-12-29T02:22:06;5.40;;;3.60;;
84816;SDS011;75051;53.104;18.058;2023-12-29T02:24:33;7.20;;;4.30;;
84816;SDS011;75051;53.104;18.058;2023-12-29T02:27:15;7.90;;;4.80;;
84816;SDS011;75051;53.104;18.058;2023-12-29T02:30:02;5.80;;;4.30;;
84816;SDS011;75051;53.104;18.058;2023-12-29T02:32:33;8.20;;;4.60;;
84816;SDS011;75051;53.104;18.058;2023-12-29T02:35:05;6.90;;;5.10;;
84816;SDS011;75051;53.104;18.058;2023-12-29T02:37:33;7.20;;;4.20;;
84816;SDS011;75051;53.104;18.058;2023-12-29T02:40:02;6.20;;;4.30;;
84816;SDS011;75051;53.104;18.058;2023-12-29T02:42:29;8.50;;;4.00;;
84816;SDS011;75051;53.104;18.058;2023-12-29T02:44:55;6.90;;;4.00;;
84816;SDS011;75051;53.104;18.058;2023-12-29T02:47:21;8.30;;;5.10;;
84816;SDS011;75051;53.104;18.058;2023-12-29T02:49:48;7.00;;;3.90;;
84816;SDS011;75051;53.104;18.058;2023-12-29T02:52:16;5.10;;;3.00;;
84816;SDS011;75051;53.104;18.058;2023-12-29T02:54:42;6.10;;;3.70;;
84816;SDS011;75051;53.104;18.058;2023-12-29T02:57:08;5.40;;;4.40;;
84816;SDS011;75051;53.104;18.058;2023-12-29T02:59:35;7.80;;;5.40;;
84816;SDS011;75051;53.104;18.058;2023-12-29T03:02:03;6.30;;;4.40;;
84816;SDS011;75051;53.104;18.058;2023-12-29T03:04:29;6.40;;;4.30;;
84816;SDS011;75051;53.104;18.058;2023-12-29T03:06:55;5.80;;;4.40;;
84816;SDS011;75051;53.104;18.058;2023-12-29T03:09:21;7.00;;;5.10;;
84816;SDS011;75051;53.104;18.058;2023-12-29T03:11:47;7.30;;;5.00;;
84816;SDS011;75051;53.104;18.058;2023-12-29T03:14:14;8.90;;;4.90;;
84816;SDS011;75051;53.104;18.058;2023-12-29T03:16:41;12.60;;;5.40;;
84816;SDS011;75051;53.104;18.058;2023-12-29T03:19:07;11.20;;;5.60;;
84816;SDS011;75051;53.104;18.058;2023-12-29T03:21:33;12.20;;;6.10;;
84816;SDS011;75051;53.104;18.058;2023-12-29T03:23:59;13.30;;;6.20;;
84816;SDS011;75051;53.104;18.058;2023-12-29T03:26:25;10.30;;;6.10;;
84816;SDS011;75051;53.104;18.058;2023-12-29T03:28:51;9.10;;;4.80;;
84816;SDS011;75051;53.104;18.058;2023-12-29T03:31:17;8.90;;;5.00;;
84816;SDS011;75051;53.104;18.058;2023-12-29T03:33:43;9.20;;;5.30;;
84816;SDS011;75051;53.104;18.058;2023-12-29T03:36:09;8.20;;;4.90;;
84816;SDS011;75051;53.104;18.058;2023-12-29T03:38:35;9.30;;;4.70;;
84816;SDS011;75051;53.104;18.058;2023-12-29T03:41:03;7.50;;;4.60;;
84816;SDS011;75051;53.104;18.058;2023-12-29T03:43:29;8.30;;;4.80;;
84816;SDS011;75051;53.104;18.058;2023-12-29T03:45:55;6.20;;;4.30;;
84816;SDS011;75051;53.104;18.058;2023-12-29T03:48:21;6.80;;;4.80;;
84816;SDS011;75051;53.104;18.058;2023-12-29T03:50:47;5.40;;;4.00;;
84816;SDS011;75051;53.104;18.058;2023-12-29T03:53:13;6.40;;;3.90;;
84816;SDS011;75051;53.104;18.058;2023-12-29T03:55:40;11.40;;;4.80;;
84816;SDS011;75051;53.104;18.058;2023-12-29T03:58:08;5.50;;;4.70;;
84816;SDS011;75051;53.104;18.058;2023-12-29T04:00:37;8.90;;;4.50;;
84816;SDS011;75051;53.104;18.058;2023-12-29T04:05:33;6.90;;;4.70;;
84816;SDS011;75051;53.104;18.058;2023-12-29T04:08:00;8.20;;;4.60;;
84816;SDS011;75051;53.104;18.058;2023-12-29T04:10:26;8.80;;;3.60;;
84816;SDS011;75051;53.104;18.058;2023-12-29T04:12:52;5.90;;;4.40;;
84816;SDS011;75051;53.104;18.058;2023-12-29T04:15:18;6.10;;;3.90;;
84816;SDS011;75051;53.104;18.058;2023-12-29T04:17:44;6.20;;;4.50;;
84816;SDS011;75051;53.104;18.058;2023-12-29T04:20:10;5.20;;;3.90;;
84816;SDS011;75051;53.104;18.058;2023-12-29T04:22:36;4.70;;;3.50;;
84816;SDS011;75051;53.104;18.058;2023-12-29T04:25:02;6.00;;;3.60;;
84816;SDS011;75051;53.104;18.058;2023-12-29T04:27:28;6.80;;;3.80;;
84816;SDS011;75051;53.104;18.058;2023-12-29T04:29:54;5.80;;;4.20;;
84816;SDS011;75051;53.104;18.058;2023-12-29T04:32:20;7.50;;;4.80;;
84816;SDS011;75051;53.104;18.058;2023-12-29T04:34:46;7.20;;;4.20;;
84816;SDS011;75051;53.104;18.058;2023-12-29T04:37:12;7.20;;;4.50;;
84816;SDS011;75051;53.104;18.058;2023-12-29T04:39:38;4.60;;;3.70;;
84816;SDS011;75051;53.104;18.058;2023-12-29T04:42:04;4.50;;;3.40;;
84816;SDS011;75051;53.104;18.058;2023-12-29T04:44:30;6.30;;;4.40;;
84816;SDS011;75051;53.104;18.058;2023-12-29T04:46:55;6.50;;;3.80;;
84816;SDS011;75051;53.104;18.058;2023-12-29T04:49:21;8.00;;;3.80;;
84816;SDS011;75051;53.104;18.058;2023-12-29T04:51:48;4.70;;;3.50;;
84816;SDS011;75051;53.104;18.058;2023-12-29T04:54:14;5.80;;;3.60;;
84816;SDS011;75051;53.104;18.058;2023-12-29T04:56:40;5.70;;;3.70;;
84816;SDS011;75051;53.104;18.058;2023-12-29T04:59:08;6.90;;;3.80;;
84816;SDS011;75051;53.104;18.058;2023-12-29T05:01:34;14.10;;;3.70;;
84816;SDS011;75051;53.104;18.058;2023-12-29T05:04:00;4.90;;;3.70;;
84816;SDS011;75051;53.104;18.058;2023-12-29T05:06:26;7.20;;;4.00;;
84816;SDS011;75051;53.104;18.058;2023-12-29T05:08:51;5.90;;;3.60;;
84816;SDS011;75051;53.104;18.058;2023-12-29T05:11:17;6.20;;;3.40;;
84816;SDS011;75051;53.104;18.058;2023-12-29T05:13:43;5.70;;;3.30;;
84816;SDS011;75051;53.104;18.058;2023-12-29T05:16:10;6.70;;;3.60;;
84816;SDS011;75051;53.104;18.058;2023-12-29T05:18:35;7.20;;;3.70;;
84816;SDS011;75051;53.104;18.058;2023-12-29T05:21:01;5.30;;;3.90;;
84816;SDS011;75051;53.104;18.058;2023-12-29T05:23:27;5.90;;;3.70;;
84816;SDS011;75051;53.104;18.058;2023-12-29T05:25:53;5.70;;;3.10;;
84816;SDS011;75051;53.104;18.058;2023-12-29T05:28:19;5.00;;;2.60;;
84816;SDS011;75051;53.104;18.058;2023-12-29T05:30:45;8.10;;;3.30;;
84816;SDS011;75051;53.104;18.058;2023-12-29T05:33:12;4.70;;;3.30;;
84816;SDS011;75051;53.104;18.058;2023-12-29T05:35:39;4.20;;;3.00;;
84816;SDS011;75051;53.104;18.058;2023-12-29T05:38:05;3.90;;;3.00;;
84816;SDS011;75051;53.104;18.058;2023-12-29T05:40:33;4.20;;;3.00;;
84816;SDS011;75051;53.104;18.058;2023-12-29T05:42:59;6.50;;;3.10;;
84816;SDS011;75051;53.104;18.058;2023-12-29T05:45:25;7.30;;;4.00;;
84816;SDS011;75051;53.104;18.058;2023-12-29T05:47:51;6.10;;;3.10;;
84816;SDS011;75051;53.104;18.058;2023-12-29T05:50:17;5.50;;;3.00;;
84816;SDS011;75051;53.104;18.058;2023-12-29T05:52:43;6.50;;;3.80;;
84816;SDS011;75051;53.104;18.058;2023-12-29T05:55:09;5.20;;;3.70;;
84816;SDS011;75051;53.104;18.058;2023-12-29T05:57:35;4.30;;;2.90;;
84816;SDS011;75051;53.104;18.058;2023-12-29T06:00:01;5.40;;;4.00;;
84816;SDS011;75051;53.104;18.058;2023-12-29T06:02:28;3.80;;;2.90;;
84816;SDS011;75051;53.104;18.058;2023-12-29T06:04:54;5.50;;;3.10;;
84816;SDS011;75051;53.104;18.058;2023-12-29T06:07:20;5.40;;;3.30;;
84816;SDS011;75051;53.104;18.058;2023-12-29T06:09:46;5.00;;;3.10;;
84816;SDS011;75051;53.104;18.058;2023-12-29T06:12:12;4.40;;;3.20;;
84816;SDS011;75051;53.104;18.058;2023-12-29T06:14:37;5.30;;;2.90;;
84816;SDS011;75051;53.104;18.058;2023-12-29T06:17:03;3.70;;;2.90;;
84816;SDS011;75051;53.104;18.058;2023-12-29T06:19:29;5.60;;;3.10;;
84816;SDS011;75051;53.104;18.058;2023-12-29T06:21:58;6.00;;;3.60;;
84816;SDS011;75051;53.104;18.058;2023-12-29T06:24:23;5.40;;;2.80;;
84816;SDS011;75051;53.104;18.058;2023-12-29T06:26:49;5.30;;;3.10;;
84816;SDS011;75051;53.104;18.058;2023-12-29T06:29:15;4.80;;;3.30;;
84816;SDS011;75051;53.104;18.058;2023-12-29T06:31:41;5.20;;;3.30;;
84816;SDS011;75051;53.104;18.058;2023-12-29T06:34:07;4.00;;;3.00;;
84816;SDS011;75051;53.104;18.058;2023-12-29T06:36:33;6.30;;;4.10;;
84816;SDS011;75051;53.104;18.058;2023-12-29T06:38:59;9.60;;;5.90;;
84816;SDS011;75051;53.104;18.058;2023-12-29T06:41:25;4.70;;;3.20;;
84816;SDS011;75051;53.104;18.058;2023-12-29T06:43:52;5.20;;;3.60;;
84816;SDS011;75051;53.104;18.058;2023-12-29T06:46:18;4.60;;;3.30;;
84816;SDS011;75051;53.104;18.058;2023-12-29T06:48:44;4.40;;;3.30;;
84816;SDS011;75051;53.104;18.058;2023-12-29T06:51:15;6.00;;;4.10;;
84816;SDS011;75051;53.104;18.058;2023-12-29T06:53:41;6.90;;;4.10;;
84816;SDS011;75051;53.104;18.058;2023-12-29T06:56:07;4.80;;;4.00;;
84816;SDS011;75051;53.104;18.058;2023-12-29T06:58:38;5.80;;;3.20;;
84816;SDS011;75051;53.104;18.058;2023-12-29T07:01:04;5.10;;;2.90;;
84816;SDS011;75051;53.104;18.058;2023-12-29T07:03:30;3.90;;;2.90;;
84816;SDS011;75051;53.104;18.058;2023-12-29T07:05:56;4.70;;;3.20;;
84816;SDS011;75051;53.104;18.058;2023-12-29T07:08:22;5.90;;;3.20;;
84816;SDS011;75051;53.104;18.058;2023-12-29T07:10:48;4.10;;;3.10;;
84816;SDS011;75051;53.104;18.058;2023-12-29T07:13:16;5.60;;;3.70;;
84816;SDS011;75051;53.104;18.058;2023-12-29T07:15:41;5.00;;;3.10;;
84816;SDS011;75051;53.104;18.058;2023-12-29T07:18:07;4.00;;;3.20;;
84816;SDS011;75051;53.104;18.058;2023-12-29T07:20:34;6.10;;;3.80;;
84816;SDS011;75051;53.104;18.058;2023-12-29T07:23:00;4.50;;;2.60;;
84816;SDS011;75051;53.104;18.058;2023-12-29T07:25:27;6.60;;;3.50;;
84816;SDS011;75051;53.104;18.058;2023-12-29T07:27:53;5.10;;;3.00;;
84816;SDS011;75051;53.104;18.058;2023-12-29T07:30:19;4.80;;;3.10;;
84816;SDS011;75051;53.104;18.058;2023-12-29T07:32:45;4.40;;;3.20;;
84816;SDS011;75051;53.104;18.058;2023-12-29T07:35:11;4.40;;;3.40;;
84816;SDS011;75051;53.104;18.058;2023-12-29T07:37:39;4.50;;;3.00;;
84816;SDS011;75051;53.104;18.058;2023-12-29T07:40:10;5.80;;;2.80;;
84816;SDS011;75051;53.104;18.058;2023-12-29T07:42:36;4.70;;;3.10;;
84816;SDS011;75051;53.104;18.058;2023-12-29T07:45:03;4.30;;;3.40;;
84816;SDS011;75051;53.104;18.058;2023-12-29T07:47:30;3.80;;;2.70;;
84816;SDS011;75051;53.104;18.058;2023-12-29T07:49:57;5.30;;;3.50;;
84816;SDS011;75051;53.104;18.058;2023-12-29T07:52:23;4.30;;;2.70;;
84816;SDS011;75051;53.104;18.058;2023-12-29T07:54:49;4.90;;;3.40;;
84816;SDS011;75051;53.104;18.058;2023-12-29T07:57:15;4.40;;;2.90;;
84816;SDS011;75051;53.104;18.058;2023-12-29T07:59:41;4.60;;;2.90;;
84816;SDS011;75051;53.104;18.058;2023-12-29T08:02:07;7.80;;;3.10;;
84816;SDS011;75051;53.104;18.058;2023-12-29T08:04:33;6.10;;;2.90;;
84816;SDS011;75051;53.104;18.058;2023-12-29T08:06:59;4.30;;;2.90;;
84816;SDS011;75051;53.104;18.058;2023-12-29T08:09:25;5.10;;;3.10;;
84816;SDS011;75051;53.104;18.058;2023-12-29T08:11:51;4.20;;;2.70;;
84816;SDS011;75051;53.104;18.058;2023-12-29T08:14:17;4.60;;;3.10;;
84816;SDS011;75051;53.104;18.058;2023-12-29T08:16:44;4.40;;;3.00;;
84816;SDS011;75051;53.104;18.058;2023-12-29T08:19:10;4.90;;;3.50;;
84816;SDS011;75051;53.104;18.058;2023-12-29T08:21:36;5.20;;;3.10;;
84816;SDS011;75051;53.104;18.058;2023-12-29T08:24:02;5.00;;;3.00;;
84816;SDS011;75051;53.104;18.058;2023-12-29T08:26:28;6.30;;;3.00;;
84816;SDS011;75051;53.104;18.058;2023-12-29T08:28:54;3.80;;;2.70;;
84816;SDS011;75051;53.104;18.058;2023-12-29T08:31:20;5.20;;;2.90;;
84816;SDS011;75051;53.104;18.058;2023-12-29T08:33:48;3.70;;;2.60;;
84816;SDS011;75051;53.104;18.058;2023-12-29T08:36:17;4.60;;;2.60;;
84816;SDS011;75051;53.104;18.058;2023-12-29T08:38:44;5.50;;;2.80;;
84816;SDS011;75051;53.104;18.058;2023-12-29T08:41:15;4.10;;;3.10;;
84816;SDS011;75051;53.104;18.058;2023-12-29T08:43:41;3.90;;;2.70;;
84816;SDS011;75051;53.104;18.058;2023-12-29T08:46:07;4.30;;;3.10;;
84816;SDS011;75051;53.104;18.058;2023-12-29T08:48:33;4.70;;;3.00;;
84816;SDS011;75051;53.104;18.058;2023-12-29T08:51:00;4.50;;;3.00;;
84816;SDS011;75051;53.104;18.058;2023-12-29T08:53:26;4.60;;;3.20;;
84816;SDS011;75051;53.104;18.058;2023-12-29T08:55:52;6.10;;;4.00;;
84816;SDS011;75051;53.104;18.058;2023-12-29T08:58:18;4.60;;;2.90;;
84816;SDS011;75051;53.104;18.058;2023-12-29T09:00:44;4.40;;;2.40;;
84816;SDS011;75051;53.104;18.058;2023-12-29T09:03:13;3.00;;;2.10;;
84816;SDS011;75051;53.104;18.058;2023-12-29T09:05:39;4.40;;;3.30;;
84816;SDS011;75051;53.104;18.058;2023-12-29T09:08:05;3.40;;;2.30;;
84816;SDS011;75051;53.104;18.058;2023-12-29T09:10:32;4.10;;;3.10;;
84816;SDS011;75051;53.104;18.058;2023-12-29T09:12:58;5.30;;;3.10;;
84816;SDS011;75051;53.104;18.058;2023-12-29T09:15:24;7.00;;;3.80;;
84816;SDS011;75051;53.104;18.058;2023-12-29T09:17:50;6.40;;;3.90;;
84816;SDS011;75051;53.104;18.058;2023-12-29T09:20:16;3.20;;;2.40;;
84816;SDS011;75051;53.104;18.058;2023-12-29T09:22:42;4.90;;;2.70;;
84816;SDS011;75051;53.104;18.058;2023-12-29T09:25:08;5.70;;;3.20;;
84816;SDS011;75051;53.104;18.058;2023-12-29T09:27:34;5.00;;;3.30;;
84816;SDS011;75051;53.104;18.058;2023-12-29T09:30:00;3.50;;;2.70;;
84816;SDS011;75051;53.104;18.058;2023-12-29T09:32:26;4.00;;;3.00;;
84816;SDS011;75051;53.104;18.058;2023-12-29T09:34:52;4.50;;;2.90;;
84816;SDS011;75051;53.104;18.058;2023-12-29T09:37:18;4.60;;;2.70;;
84816;SDS011;75051;53.104;18.058;2023-12-29T09:39:44;4.30;;;2.60;;
84816;SDS011;75051;53.104;18.058;2023-12-29T09:42:12;5.90;;;4.40;;
84816;SDS011;75051;53.104;18.058;2023-12-29T09:44:45;7.00;;;3.40;;
84816;SDS011;75051;53.104;18.058;2023-12-29T09:47:17;5.20;;;3.40;;
84816;SDS011;75051;53.104;18.058;2023-12-29T09:49:49;3.20;;;2.10;;
84816;SDS011;75051;53.104;18.058;2023-12-29T09:52:17;5.00;;;2.20;;
84816;SDS011;75051;53.104;18.058;2023-12-29T09:54:45;4.80;;;3.20;;
84816;SDS011;75051;53.104;18.058;2023-12-29T09:57:12;4.40;;;3.20;;
84816;SDS011;75051;53.104;18.058;2023-12-29T09:59:40;4.60;;;3.00;;
84816;SDS011;75051;53.104;18.058;2023-12-29T10:02:14;4.10;;;2.50;;
84816;SDS011;75051;53.104;18.058;2023-12-29T10:04:44;4.00;;;2.30;;
84816;SDS011;75051;53.104;18.058;2023-12-29T10:07:10;7.00;;;2.60;;
84816;SDS011;75051;53.104;18.058;2023-12-29T10:09:41;4.90;;;3.20;;
84816;SDS011;75051;53.104;18.058;2023-12-29T10:12:09;5.80;;;3.90;;
84816;SDS011;75051;53.104;18.058;2023-12-29T10:14:40;5.30;;;3.50;;
84816;SDS011;75051;53.104;18.058;2023-12-29T10:17:38;3.50;;;2.30;;
84816;SDS011;75051;53.104;18.058;2023-12-29T10:20:18;3.40;;;2.40;;
84816;SDS011;75051;53.104;18.058;2023-12-29T10:25:35;6.10;;;2.30;;
84816;SDS011;75051;53.104;18.058;2023-12-29T10:28:02;4.00;;;2.10;;
84816;SDS011;75051;53.104;18.058;2023-12-29T10:30:28;5.20;;;3.20;;
84816;SDS011;75051;53.104;18.058;2023-12-29T10:32:55;4.80;;;2.90;;
84816;SDS011;75051;53.104;18.058;2023-12-29T10:35:21;5.90;;;2.90;;
84816;SDS011;75051;53.104;18.058;2023-12-29T10:37:50;4.20;;;2.50;;
84816;SDS011;75051;53.104;18.058;2023-12-29T10:40:17;3.90;;;2.20;;
84816;SDS011;75051;53.104;18.058;2023-12-29T10:42:54;4.00;;;2.20;;
84816;SDS011;75051;53.104;18.058;2023-12-29T10:45:21;4.20;;;2.30;;
84816;SDS011;75051;53.104;18.058;2023-12-29T10:47:50;4.40;;;2.40;;
84816;SDS011;75051;53.104;18.058;2023-12-29T10:50:17;4.00;;;2.40;;
84816;SDS011;75051;53.104;18.058;2023-12-29T10:52:43;4.20;;;2.30;;
84816;SDS011;75051;53.104;18.058;2023-12-29T10:55:10;4.20;;;2.70;;
84816;SDS011;75051;53.104;18.058;2023-12-29T10:57:37;5.10;;;3.00;;
84816;SDS011;75051;53.104;18.058;2023-12-29T11:00:04;5.70;;;2.80;;
84816;SDS011;75051;53.104;18.058;2023-12-29T11:02:34;6.40;;;2.80;;
84816;SDS011;75051;53.104;18.058;2023-12-29T11:05:01;4.20;;;3.10;;
84816;SDS011;75051;53.104;18.058;2023-12-29T11:10:03;5.10;;;2.60;;
84816;SDS011;75051;53.104;18.058;2023-12-29T11:12:34;4.60;;;2.50;;
84816;SDS011;75051;53.104;18.058;2023-12-29T11:15:03;5.70;;;2.60;;
84816;SDS011;75051;53.104;18.058;2023-12-29T11:17:32;5.80;;;3.10;;
84816;SDS011;75051;53.104;18.058;2023-12-29T11:20:00;5.30;;;3.20;;
84816;SDS011;75051;53.104;18.058;2023-12-29T11:22:30;4.20;;;2.80;;
84816;SDS011;75051;53.104;18.058;2023-12-29T11:24:58;4.70;;;2.70;;
84816;SDS011;75051;53.104;18.058;2023-12-29T11:27:29;5.40;;;2.80;;
84816;SDS011;75051;53.104;18.058;2023-12-29T11:30:00;5.60;;;3.00;;
84816;SDS011;75051;53.104;18.058;2023-12-29T11:32:41;4.30;;;2.50;;
84816;SDS011;75051;53.104;18.058;2023-12-29T11:35:13;5.10;;;2.90;;
84816;SDS011;75051;53.104;18.058;2023-12-29T11:43:08;4.00;;;2.80;;
84816;SDS011;75051;53.104;18.058;2023-12-29T11:45:40;4.30;;;3.10;;
84816;SDS011;75051;53.104;18.058;2023-12-29T11:48:08;4.00;;;2.70;;
84816;SDS011;75051;53.104;18.058;2023-12-29T11:50:35;5.00;;;2.30;;
84816;SDS011;75051;53.104;18.058;2023-12-29T11:53:08;3.80;;;2.30;;
84816;SDS011;75051;53.104;18.058;2023-12-29T11:55:58;3.40;;;2.70;;
84816;SDS011;75051;53.104;18.058;2023-12-29T11:58:24;3.80;;;2.60;;
84816;SDS011;75051;53.104;18.058;2023-12-29T12:00:55;4.30;;;2.40;;
84816;SDS011;75051;53.104;18.058;2023-12-29T12:03:25;4.30;;;2.70;;
84816;SDS011;75051;53.104;18.058;2023-12-29T12:05:58;3.80;;;2.30;;
84816;SDS011;75051;53.104;18.058;2023-12-29T12:08:29;3.50;;;2.20;;
84816;SDS011;75051;53.104;18.058;2023-12-29T12:13:55;3.60;;;2.20;;
84816;SDS011;75051;53.104;18.058;2023-12-29T12:19:13;4.40;;;3.10;;
84816;SDS011;75051;53.104;18.058;2023-12-29T12:21:40;4.80;;;2.90;;
84816;SDS011;75051;53.104;18.058;2023-12-29T12:24:07;3.10;;;2.00;;
84816;SDS011;75051;53.104;18.058;2023-12-29T12:26:33;4.20;;;2.60;;
84816;SDS011;75051;53.104;18.058;2023-12-29T12:29:00;4.50;;;2.80;;
84816;SDS011;75051;53.104;18.058;2023-12-29T12:31:26;4.10;;;2.20;;
84816;SDS011;75051;53.104;18.058;2023-12-29T12:33:53;5.20;;;2.20;;
84816;SDS011;75051;53.104;18.058;2023-12-29T12:36:21;4.70;;;2.30;;
84816;SDS011;75051;53.104;18.058;2023-12-29T12:38:54;4.40;;;2.50;;
84816;SDS011;75051;53.104;18.058;2023-12-29T12:41:22;4.50;;;2.60;;
84816;SDS011;75051;53.104;18.058;2023-12-29T12:43:54;5.20;;;2.80;;
84816;SDS011;75051;53.104;18.058;2023-12-29T12:46:27;5.30;;;3.30;;
84816;SDS011;75051;53.104;18.058;2023-12-29T12:48:58;4.60;;;3.10;;
84816;SDS011;75051;53.104;18.058;2023-12-29T12:51:26;7.60;;;3.50;;
84816;SDS011;75051;53.104;18.058;2023-12-29T12:53:53;4.00;;;2.90;;
84816;SDS011;75051;53.104;18.058;2023-12-29T12:56:19;4.30;;;2.80;;
84816;SDS011;75051;53.104;18.058;2023-12-29T12:58:45;7.90;;;3.80;;
84816;SDS011;75051;53.104;18.058;2023-12-29T13:01:12;7.60;;;3.30;;
84816;SDS011;75051;53.104;18.058;2023-12-29T13:03:41;6.60;;;3.70;;
84816;SDS011;75051;53.104;18.058;2023-12-29T13:06:08;8.50;;;4.80;;
84816;SDS011;75051;53.104;18.058;2023-12-29T13:08:35;7.70;;;4.80;;
84816;SDS011;75051;53.104;18.058;2023-12-29T13:11:02;9.50;;;6.60;;
84816;SDS011;75051;53.104;18.058;2023-12-29T13:13:39;5.10;;;3.70;;
84816;SDS011;75051;53.104;18.058;2023-12-29T13:16:05;4.40;;;3.40;;
84816;SDS011;75051;53.104;18.058;2023-12-29T13:18:32;5.80;;;3.10;;
84816;SDS011;75051;53.104;18.058;2023-12-29T13:21:00;5.20;;;2.80;;
84816;SDS011;75051;53.104;18.058;2023-12-29T13:23:30;4.70;;;3.20;;
84816;SDS011;75051;53.104;18.058;2023-12-29T13:26:01;5.70;;;3.50;;
84816;SDS011;75051;53.104;18.058;2023-12-29T13:28:35;8.30;;;3.80;;
84816;SDS011;75051;53.104;18.058;2023-12-29T13:31:03;6.70;;;3.30;;
84816;SDS011;75051;53.104;18.058;2023-12-29T13:33:41;5.40;;;3.60;;
84816;SDS011;75051;53.104;18.058;2023-12-29T13:36:23;5.50;;;3.30;;
84816;SDS011;75051;53.104;18.058;2023-12-29T13:38:57;7.00;;;3.50;;
84816;SDS011;75051;53.104;18.058;2023-12-29T13:41:31;3.60;;;2.60;;
84816;SDS011;75051;53.104;18.058;2023-12-29T13:43:59;7.50;;;3.60;;
84816;SDS011;75051;53.104;18.058;2023-12-29T13:46:29;4.60;;;3.10;;
84816;SDS011;75051;53.104;18.058;2023-12-29T13:48:59;5.30;;;3.40;;
84816;SDS011;75051;53.104;18.058;2023-12-29T13:51:40;5.10;;;2.70;;
84816;SDS011;75051;53.104;18.058;2023-12-29T13:54:07;4.70;;;3.00;;
84816;SDS011;75051;53.104;18.058;2023-12-29T13:56:35;7.00;;;3.90;;
84816;SDS011;75051;53.104;18.058;2023-12-29T13:59:02;7.00;;;3.30;;
84816;SDS011;75051;53.104;18.058;2023-12-29T14:01:36;5.60;;;4.30;;
84816;SDS011;75051;53.104;18.058;2023-12-29T14:04:03;5.90;;;3.80;;
84816;SDS011;75051;53.104;18.058;2023-12-29T14:07:11;8.20;;;4.90;;
84816;SDS011;75051;53.104;18.058;2023-12-29T14:09:34;8.30;;;4.70;;
84816;SDS011;75051;53.104;18.058;2023-12-29T14:12:02;6.60;;;4.00;;
84816;SDS011;75051;53.104;18.058;2023-12-29T14:14:28;8.20;;;4.10;;
84816;SDS011;75051;53.104;18.058;2023-12-29T14:16:55;7.20;;;4.00;;
84816;SDS011;75051;53.104;18.058;2023-12-29T14:19:21;7.00;;;4.30;;
84816;SDS011;75051;53.104;18.058;2023-12-29T14:21:49;5.40;;;3.90;;
84816;SDS011;75051;53.104;18.058;2023-12-29T14:24:17;5.70;;;4.40;;
84816;SDS011;75051;53.104;18.058;2023-12-29T14:29:19;6.80;;;3.50;;
84816;SDS011;75051;53.104;18.058;2023-12-29T14:31:48;6.60;;;5.00;;
84816;SDS011;75051;53.104;18.058;2023-12-29T14:34:17;6.10;;;3.80;;
84816;SDS011;75051;53.104;18.058;2023-12-29T14:36:43;7.00;;;3.40;;
84816;SDS011;75051;53.104;18.058;2023-12-29T14:39:09;8.90;;;5.20;;
84816;SDS011;75051;53.104;18.058;2023-12-29T14:41:36;9.70;;;7.00;;
84816;SDS011;75051;53.104;18.058;2023-12-29T14:44:03;9.70;;;7.10;;
84816;SDS011;75051;53.104;18.058;2023-12-29T14:46:30;9.90;;;6.70;;
84816;SDS011;75051;53.104;18.058;2023-12-29T14:48:58;8.90;;;5.50;;
84816;SDS011;75051;53.104;18.058;2023-12-29T14:51:25;7.60;;;4.20;;
84816;SDS011;75051;53.104;18.058;2023-12-29T14:53:52;10.10;;;6.60;;
84816;SDS011;75051;53.104;18.058;2023-12-29T14:56:18;7.70;;;3.90;;
84816;SDS011;75051;53.104;18.058;2023-12-29T14:58:44;9.00;;;4.90;;